sensor_id;sensor_type;location;lat;lon;timestamp;temperature;humidity
50606;DHT22;36557;53.572;10.170;2023-03-01T00:02:20;-1.80;99.90
50606;DHT22;36557;53.572;10.170;2023-03-01T00:04:46;-1.70;99.90
50606;DHT22;36557;53.572;10.170;2023-03-01T00:07:12;-1.70;99.90
50606;DHT22;36557;53.572;10.170;2023-03-01T00:09:38;-1.70;99.90
50606;DHT22;36557;53.572;10.170;2023-03-01T00:12:05;-1.80;99.90
50606;DHT22;36557;53.572;10.170;2023-03-01T00:14:31;-1.80;99.90
50606;DHT22;36557;53.572;10.170;2023-03-01T00:16:57;-1.80;99.90
50606;DHT22;36557;53.572;10.170;2023-03-01T00:19:23;-1.70;99.90
50606;DHT22;36557;53.572;10.170;2023-03-01T00:21:48;-1.80;99.90
50606;DHT22;36557;53.572;10.170;2023-03-01T00:24:15;-1.90;99.90
50606;DHT22;36557;53.572;10.170;2023-03-01T00:26:41;-1.90;99.90
50606;DHT22;36557;53.572;10.170;2023-03-01T00:29:06;-1.90;99.90
50606;DHT22;36557;53.572;10.170;2023-03-01T00:31:33;-1.90;99.90
50606;DHT22;36557;53.572;10.170;2023-03-01T00:34:02;-1.90;99.90
50606;DHT22;36557;53.572;10.170;2023-03-01T00:36:31;-2.00;99.90
50606;DHT22;36557;53.572;10.170;2023-03-01T00:38:57;-2.00;99.90
50606;DHT22;36557;53.572;10.170;2023-03-01T00:41:24;-2.00;99.90
50606;DHT22;36557;53.572;10.170;2023-03-01T00:43:52;-2.00;99.90
50606;DHT22;36557;53.572;10.170;2023-03-01T00:46:21;-2.00;99.90
50606;DHT22;36557;53.572;10.170;2023-03-01T00:48:47;-2.00;99.90
50606;DHT22;36557;53.572;10.170;2023-03-01T00:51:18;-2.10;99.90
50606;DHT22;36557;53.572;10.170;2023-03-01T00:53:45;-2.10;99.90
50606;DHT22;36557;53.572;10.170;2023-03-01T00:56:12;-2.10;99.90
50606;DHT22;36557;53.572;10.170;2023-03-01T00:58:38;-2.10;99.90
50606;DHT22;36557;53.572;10.170;2023-03-01T01:01:19;-2.10;99.90
50606;DHT22;36557;53.572;10.170;2023-03-01T01:04:09;-2.10;99.90
50606;DHT22;36557;53.572;10.170;2023-03-01T01:06:38;-2.10;99.90
50606;DHT22;36557;53.572;10.170;2023-03-01T01:09:06;-2.10;99.90
50606;DHT22;36557;53.572;10.170;2023-03-01T01:11:32;-2.10;99.90
50606;DHT22;36557;53.572;10.170;2023-03-01T01:14:00;-2.10;99.90
50606;DHT22;36557;53.572;10.170;2023-03-01T01:16:27;-2.10;99.90
50606;DHT22;36557;53.572;10.170;2023-03-01T01:18:53;-2.10;99.90
50606;DHT22;36557;53.572;10.170;2023-03-01T01:21:21;-2.20;99.90
50606;DHT22;36557;53.572;10.170;2023-03-01T01:23:48;-2.20;99.90
50606;DHT22;36557;53.572;10.170;2023-03-01T01:26:27;-2.30;99.90
50606;DHT22;36557;53.572;10.170;2023-03-01T01:28:54;-2.20;99.90
50606;DHT22;36557;53.572;10.170;2023-03-01T01:31:21;-2.20;99.90
50606;DHT22;36557;53.572;10.170;2023-03-01T01:33:49;-2.20;99.90
50606;DHT22;36557;53.572;10.170;2023-03-01T01:36:15;-2.20;99.90
50606;DHT22;36557;53.572;10.170;2023-03-01T01:38:41;-2.20;99.90
50606;DHT22;36557;53.572;10.170;2023-03-01T01:41:09;-2.20;99.90
50606;DHT22;36557;53.572;10.170;2023-03-01T01:43:43;-2.20;99.90
50606;DHT22;36557;53.572;10.170;2023-03-01T01:46:28;-2.20;99.90
50606;DHT22;36557;53.572;10.170;2023-03-01T01:49:12;-2.20;99.90
50606;DHT22;36557;53.572;10.170;2023-03-01T01:51:42;-2.20;99.90
50606;DHT22;36557;53.572;10.170;2023-03-01T01:54:16;-2.20;99.90
50606;DHT22;36557;53.572;10.170;2023-03-01T01:56:46;-2.20;99.90
50606;DHT22;36557;53.572;10.170;2023-03-01T01:59:14;-2.20;99.90
50606;DHT22;36557;53.572;10.170;2023-03-01T02:01:40;-2.20;99.90
50606;DHT22;36557;53.572;10.170;2023-03-01T02:04:06;-2.20;99.90
50606;DHT22;36557;53.572;10.170;2023-03-01T02:06:48;-2.20;99.90
50606;DHT22;36557;53.572;10.170;2023-03-01T02:09:18;-2.20;99.90
50606;DHT22;36557;53.572;10.170;2023-03-01T02:11:47;-2.30;99.90
50606;DHT22;36557;53.572;10.170;2023-03-01T02:14:14;-2.20;99.90
50606;DHT22;36557;53.572;10.170;2023-03-01T02:16:40;-2.30;99.90
50606;DHT22;36557;53.572;10.170;2023-03-01T02:19:06;-2.30;99.90
50606;DHT22;36557;53.572;10.170;2023-03-01T02:25:20;-2.30;99.90
50606;DHT22;36557;53.572;10.170;2023-03-01T02:27:40;-2.30;99.90
50606;DHT22;36557;53.572;10.170;2023-03-01T02:30:09;-2.30;99.90
50606;DHT22;36557;53.572;10.170;2023-03-01T02:32:39;-2.30;99.90
50606;DHT22;36557;53.572;10.170;2023-03-01T02:35:09;-2.30;99.90
50606;DHT22;36557;53.572;10.170;2023-03-01T02:37:36;-2.40;99.90
50606;DHT22;36557;53.572;10.170;2023-03-01T02:40:05;-2.30;99.90
50606;DHT22;36557;53.572;10.170;2023-03-01T02:42:36;-2.30;99.90
50606;DHT22;36557;53.572;10.170;2023-03-01T02:45:06;-2.40;99.90
50606;DHT22;36557;53.572;10.170;2023-03-01T02:47:32;-2.30;99.90
50606;DHT22;36557;53.572;10.170;2023-03-01T02:49:57;-2.30;99.90
50606;DHT22;36557;53.572;10.170;2023-03-01T02:55:11;-2.30;99.90
50606;DHT22;36557;53.572;10.170;2023-03-01T02:57:43;-2.30;99.90
50606;DHT22;36557;53.572;10.170;2023-03-01T03:00:15;-2.30;99.90
50606;DHT22;36557;53.572;10.170;2023-03-01T03:02:45;-2.30;99.90
50606;DHT22;36557;53.572;10.170;2023-03-01T03:05:22;-2.30;99.90
50606;DHT22;36557;53.572;10.170;2023-03-01T03:07:49;-2.30;99.90
50606;DHT22;36557;53.572;10.170;2023-03-01T03:10:21;-2.30;99.90
50606;DHT22;36557;53.572;10.170;2023-03-01T03:13:13;-2.30;99.90
50606;DHT22;36557;53.572;10.170;2023-03-01T03:15:38;-2.30;99.90
50606;DHT22;36557;53.572;10.170;2023-03-01T03:18:08;-2.30;99.90
50606;DHT22;36557;53.572;10.170;2023-03-01T03:20:34;-2.30;99.90
50606;DHT22;36557;53.572;10.170;2023-03-01T06:12:35;-0.40;99.90
50606;DHT22;36557;53.572;10.170;2023-03-01T06:15:02;-0.40;99.90
50606;DHT22;36557;53.572;10.170;2023-03-01T06:17:32;-0.40;99.90
50606;DHT22;36557;53.572;10.170;2023-03-01T06:19:58;-0.40;99.90
50606;DHT22;36557;53.572;10.170;2023-03-01T06:22:24;-0.40;99.90
50606;DHT22;36557;53.572;10.170;2023-03-01T06:24:50;-0.40;99.90
50606;DHT22;36557;53.572;10.170;2023-03-01T06:27:16;-0.30;99.90
50606;DHT22;36557;53.572;10.170;2023-03-01T06:29:41;-0.30;99.90
50606;DHT22;36557;53.572;10.170;2023-03-01T06:32:07;-0.20;99.90
50606;DHT22;36557;53.572;10.170;2023-03-01T06:34:33;-0.20;99.90
50606;DHT22;36557;53.572;10.170;2023-03-01T06:36:59;-0.20;99.90
50606;DHT22;36557;53.572;10.170;2023-03-01T06:39:27;-0.20;99.90
50606;DHT22;36557;53.572;10.170;2023-03-01T06:41:53;-0.10;99.90
50606;DHT22;36557;53.572;10.170;2023-03-01T06:44:19;-0.10;99.90
50606;DHT22;36557;53.572;10.170;2023-03-01T06:46:44;0.00;99.90
50606;DHT22;36557;53.572;10.170;2023-03-01T06:49:10;0.10;99.90
50606;DHT22;36557;53.572;10.170;2023-03-01T06:51:37;0.10;99.90
50606;DHT22;36557;53.572;10.170;2023-03-01T06:54:05;0.20;99.90
50606;DHT22;36557;53.572;10.170;2023-03-01T06:56:31;0.20;99.90
50606;DHT22;36557;53.572;10.170;2023-03-01T06:58:58;0.30;99.90
50606;DHT22;36557;53.572;10.170;2023-03-01T07:01:23;0.30;99.90
50606;DHT22;36557;53.572;10.170;2023-03-01T07:03:49;0.40;99.90
50606;DHT22;36557;53.572;10.170;2023-03-01T07:06:15;0.40;99.90
50606;DHT22;36557;53.572;10.170;2023-03-01T07:08:40;0.50;99.90
50606;DHT22;36557;53.572;10.170;2023-03-01T07:11:06;0.50;99.90
50606;DHT22;36557;53.572;10.170;2023-03-01T07:13:32;0.50;99.90
50606;DHT22;36557;53.572;10.170;2023-03-01T07:15:58;0.60;99.90
50606;DHT22;36557;53.572;10.170;2023-03-01T07:18:24;0.70;99.90
50606;DHT22;36557;53.572;10.170;2023-03-01T07:20:49;0.70;99.90
50606;DHT22;36557;53.572;10.170;2023-03-01T07:23:15;0.80;99.90
50606;DHT22;36557;53.572;10.170;2023-03-01T07:25:41;0.90;99.90
50606;DHT22;36557;53.572;10.170;2023-03-01T07:28:06;0.90;99.90
50606;DHT22;36557;53.572;10.170;2023-03-01T07:30:32;0.90;99.90
50606;DHT22;36557;53.572;10.170;2023-03-01T07:32:58;1.00;99.90
50606;DHT22;36557;53.572;10.170;2023-03-01T07:35:27;1.00;99.90
50606;DHT22;36557;53.572;10.170;2023-03-01T07:37:53;1.10;99.90
50606;DHT22;36557;53.572;10.170;2023-03-01T07:40:19;1.10;99.90
50606;DHT22;36557;53.572;10.170;2023-03-01T07:42:45;1.20;99.90
50606;DHT22;36557;53.572;10.170;2023-03-01T07:45:11;1.20;99.90
50606;DHT22;36557;53.572;10.170;2023-03-01T07:47:39;1.20;99.90
50606;DHT22;36557;53.572;10.170;2023-03-01T07:50:05;1.20;99.90
50606;DHT22;36557;53.572;10.170;2023-03-01T07:52:31;1.30;99.90
50606;DHT22;36557;53.572;10.170;2023-03-01T07:54:57;1.40;99.90
50606;DHT22;36557;53.572;10.170;2023-03-01T07:57:23;1.40;99.90
50606;DHT22;36557;53.572;10.170;2023-03-01T07:59:49;1.50;99.90
50606;DHT22;36557;53.572;10.170;2023-03-01T08:02:15;1.60;99.90
50606;DHT22;36557;53.572;10.170;2023-03-01T08:04:41;1.60;99.90
50606;DHT22;36557;53.572;10.170;2023-03-01T08:07:07;1.70;99.90
50606;DHT22;36557;53.572;10.170;2023-03-01T08:09:36;1.80;99.90
50606;DHT22;36557;53.572;10.170;2023-03-01T08:12:03;1.80;99.90
50606;DHT22;36557;53.572;10.170;2023-03-01T08:14:30;1.80;99.90
50606;DHT22;36557;53.572;10.170;2023-03-01T08:16:56;2.00;99.90
50606;DHT22;36557;53.572;10.170;2023-03-01T08:19:22;2.00;99.90
50606;DHT22;36557;53.572;10.170;2023-03-01T08:21:48;2.10;99.90
50606;DHT22;36557;53.572;10.170;2023-03-01T08:24:13;2.20;99.90
50606;DHT22;36557;53.572;10.170;2023-03-01T08:26:39;2.30;99.90
50606;DHT22;36557;53.572;10.170;2023-03-01T08:29:05;2.40;99.90
50606;DHT22;36557;53.572;10.170;2023-03-01T08:31:35;2.50;99.90
50606;DHT22;36557;53.572;10.170;2023-03-01T08:34:05;2.60;99.90
50606;DHT22;36557;53.572;10.170;2023-03-01T08:36:35;2.70;99.90
50606;DHT22;36557;53.572;10.170;2023-03-01T08:39:03;2.70;99.90
50606;DHT22;36557;53.572;10.170;2023-03-01T08:41:29;2.70;99.90
50606;DHT22;36557;53.572;10.170;2023-03-01T08:43:55;2.80;99.90
50606;DHT22;36557;53.572;10.170;2023-03-01T08:46:28;2.90;99.90
50606;DHT22;36557;53.572;10.170;2023-03-01T08:48:54;3.00;99.90
50606;DHT22;36557;53.572;10.170;2023-03-01T08:51:21;3.10;99.90
50606;DHT22;36557;53.572;10.170;2023-03-01T08:53:48;3.20;99.90
50606;DHT22;36557;53.572;10.170;2023-03-01T08:56:14;3.20;99.90
50606;DHT22;36557;53.572;10.170;2023-03-01T08:58:40;3.20;99.90
50606;DHT22;36557;53.572;10.170;2023-03-01T09:01:09;3.20;99.90
50606;DHT22;36557;53.572;10.170;2023-03-01T09:03:36;3.30;99.90
50606;DHT22;36557;53.572;10.170;2023-03-01T09:06:03;3.40;99.90
50606;DHT22;36557;53.572;10.170;2023-03-01T09:08:31;3.60;99.90
50606;DHT22;36557;53.572;10.170;2023-03-01T09:11:02;3.50;99.90
50606;DHT22;36557;53.572;10.170;2023-03-01T09:13:28;3.60;99.90
50606;DHT22;36557;53.572;10.170;2023-03-01T09:16:03;3.70;99.90
50606;DHT22;36557;53.572;10.170;2023-03-01T09:18:29;3.70;99.90
50606;DHT22;36557;53.572;10.170;2023-03-01T09:23:36;3.90;99.90
50606;DHT22;36557;53.572;10.170;2023-03-01T09:26:02;3.90;99.90
50606;DHT22;36557;53.572;10.170;2023-03-01T09:28:28;4.00;99.90
50606;DHT22;36557;53.572;10.170;2023-03-01T09:30:58;4.10;99.90
50606;DHT22;36557;53.572;10.170;2023-03-01T09:33:24;4.20;99.90
50606;DHT22;36557;53.572;10.170;2023-03-01T09:35:49;4.40;99.90
50606;DHT22;36557;53.572;10.170;2023-03-01T09:38:15;4.60;99.90
50606;DHT22;36557;53.572;10.170;2023-03-01T09:40:44;4.70;99.90
50606;DHT22;36557;53.572;10.170;2023-03-01T09:43:32;4.80;99.90
50606;DHT22;36557;53.572;10.170;2023-03-01T09:46:04;4.70;99.90
50606;DHT22;36557;53.572;10.170;2023-03-01T09:48:37;4.80;99.90
50606;DHT22;36557;53.572;10.170;2023-03-01T09:51:06;5.00;99.90
50606;DHT22;36557;53.572;10.170;2023-03-01T09:53:33;5.00;99.90
50606;DHT22;36557;53.572;10.170;2023-03-01T10:01:33;5.10;99.90
50606;DHT22;36557;53.572;10.170;2023-03-01T10:06:55;5.10;99.90
50606;DHT22;36557;53.572;10.170;2023-03-01T10:09:23;5.20;99.90
50606;DHT22;36557;53.572;10.170;2023-03-01T10:11:52;5.20;99.90
50606;DHT22;36557;53.572;10.170;2023-03-01T10:14:36;5.20;99.90
50606;DHT22;36557;53.572;10.170;2023-03-01T10:19:44;5.30;99.90
50606;DHT22;36557;53.572;10.170;2023-03-01T10:22:28;5.40;99.90
50606;DHT22;36557;53.572;10.170;2023-03-01T10:24:56;5.40;99.90
50606;DHT22;36557;53.572;10.170;2023-03-01T10:27:34;5.50;99.90
50606;DHT22;36557;53.572;10.170;2023-03-01T10:30:22;5.50;99.90
50606;DHT22;36557;53.572;10.170;2023-03-01T10:32:55;5.60;99.90
50606;DHT22;36557;53.572;10.170;2023-03-01T10:35:27;5.60;99.90
50606;DHT22;36557;53.572;10.170;2023-03-01T10:38:13;5.60;99.90
50606;DHT22;36557;53.572;10.170;2023-03-01T10:40:56;5.60;99.90
50606;DHT22;36557;53.572;10.170;2023-03-01T10:43:24;5.60;99.90
50606;DHT22;36557;53.572;10.170;2023-03-01T10:45:50;5.70;99.90
50606;DHT22;36557;53.572;10.170;2023-03-01T10:48:25;5.80;99.90
50606;DHT22;36557;53.572;10.170;2023-03-01T10:51:15;5.90;99.90
50606;DHT22;36557;53.572;10.170;2023-03-01T10:53:47;5.90;99.90
50606;DHT22;36557;53.572;10.170;2023-03-01T10:56:14;5.90;99.90
50606;DHT22;36557;53.572;10.170;2023-03-01T10:59:03;5.90;99.90
50606;DHT22;36557;53.572;10.170;2023-03-01T11:01:32;6.00;99.90
50606;DHT22;36557;53.572;10.170;2023-03-01T11:06:34;6.00;99.90
50606;DHT22;36557;53.572;10.170;2023-03-01T11:09:19;5.90;99.90
50606;DHT22;36557;53.572;10.170;2023-03-01T11:11:46;6.20;99.90
50606;DHT22;36557;53.572;10.170;2023-03-01T11:14:25;6.30;99.90
50606;DHT22;36557;53.572;10.170;2023-03-01T11:17:18;6.50;99.90
50606;DHT22;36557;53.572;10.170;2023-03-01T11:22:59;6.60;99.90
50606;DHT22;36557;53.572;10.170;2023-03-01T11:25:31;6.60;99.90
50606;DHT22;36557;53.572;10.170;2023-03-01T11:27:59;6.70;99.90
50606;DHT22;36557;53.572;10.170;2023-03-01T11:30:38;6.70;99.90
50606;DHT22;36557;53.572;10.170;2023-03-01T11:35:36;6.90;99.90
50606;DHT22;36557;53.572;10.170;2023-03-01T11:38:22;7.00;99.90
50606;DHT22;36557;53.572;10.170;2023-03-01T11:40:54;7.20;99.90
50606;DHT22;36557;53.572;10.170;2023-03-01T11:57:34;8.10;99.90
50606;DHT22;36557;53.572;10.170;2023-03-01T12:08:59;8.30;99.90
50606;DHT22;36557;53.572;10.170;2023-03-01T12:17:09;8.20;99.90
50606;DHT22;36557;53.572;10.170;2023-03-01T12:25:13;8.60;99.90
50606;DHT22;36557;53.572;10.170;2023-03-01T12:28:09;8.40;99.90
50606;DHT22;36557;53.572;10.170;2023-03-01T12:31:05;8.40;99.90
50606;DHT22;36557;53.572;10.170;2023-03-01T12:45:20;8.80;99.90
50606;DHT22;36557;53.572;10.170;2023-03-01T12:50:47;8.90;99.90
50606;DHT22;36557;53.572;10.170;2023-03-01T12:53:44;8.50;99.90
50606;DHT22;36557;53.572;10.170;2023-03-01T12:56:17;8.50;99.90
50606;DHT22;36557;53.572;10.170;2023-03-01T13:01:52;8.60;99.90
50606;DHT22;36557;53.572;10.170;2023-03-01T13:07:39;8.80;99.90
50606;DHT22;36557;53.572;10.170;2023-03-01T13:10:29;8.80;99.90
50606;DHT22;36557;53.572;10.170;2023-03-01T13:13:02;8.60;99.90
50606;DHT22;36557;53.572;10.170;2023-03-01T13:15:31;8.50;99.90
50606;DHT22;36557;53.572;10.170;2023-03-01T13:17:59;8.50;99.90
50606;DHT22;36557;53.572;10.170;2023-03-01T13:28:53;8.70;99.90
50606;DHT22;36557;53.572;10.170;2023-03-01T13:38:58;8.70;99.90
50606;DHT22;36557;53.572;10.170;2023-03-01T13:46:38;8.60;99.90
50606;DHT22;36557;53.572;10.170;2023-03-01T13:49:05;8.60;99.90
50606;DHT22;36557;53.572;10.170;2023-03-01T13:51:36;8.50;99.90
50606;DHT22;36557;53.572;10.170;2023-03-01T13:54:02;8.70;99.90
50606;DHT22;36557;53.572;10.170;2023-03-01T13:56:35;8.60;99.90
50606;DHT22;36557;53.572;10.170;2023-03-01T13:59:04;8.50;99.90
50606;DHT22;36557;53.572;10.170;2023-03-01T14:01:35;8.50;99.90
50606;DHT22;36557;53.572;10.170;2023-03-01T14:04:02;8.30;99.90
50606;DHT22;36557;53.572;10.170;2023-03-01T14:06:33;8.20;99.90
50606;DHT22;36557;53.572;10.170;2023-03-01T14:09:18;8.30;99.90
50606;DHT22;36557;53.572;10.170;2023-03-01T14:17:44;8.30;99.60
50606;DHT22;36557;53.572;10.170;2023-03-01T14:20:23;8.40;99.90
50606;DHT22;36557;53.572;10.170;2023-03-01T14:22:55;8.10;99.00
50606;DHT22;36557;53.572;10.170;2023-03-01T14:25:32;8.20;99.30
50606;DHT22;36557;53.572;10.170;2023-03-01T14:28:11;8.10;98.80
50606;DHT22;36557;53.572;10.170;2023-03-01T14:30:43;8.00;99.50
50606;DHT22;36557;53.572;10.170;2023-03-01T14:33:33;8.00;98.40
50606;DHT22;36557;53.572;10.170;2023-03-01T14:36:07;8.10;98.70
50606;DHT22;36557;53.572;10.170;2023-03-01T14:41:10;8.00;99.70
50606;DHT22;36557;53.572;10.170;2023-03-01T14:43:38;8.00;99.40
50606;DHT22;36557;53.572;10.170;2023-03-01T14:46:05;8.00;99.50
50606;DHT22;36557;53.572;10.170;2023-03-01T14:48:31;8.00;99.30
50606;DHT22;36557;53.572;10.170;2023-03-01T14:50:57;7.90;99.60
50606;DHT22;36557;53.572;10.170;2023-03-01T14:53:26;7.90;99.30
50606;DHT22;36557;53.572;10.170;2023-03-01T14:55:55;7.80;99.60
50606;DHT22;36557;53.572;10.170;2023-03-01T14:58:24;7.90;99.90
50606;DHT22;36557;53.572;10.170;2023-03-01T15:00:53;7.80;99.90
50606;DHT22;36557;53.572;10.170;2023-03-01T15:03:41;7.70;99.90
50606;DHT22;36557;53.572;10.170;2023-03-01T15:06:09;7.70;99.90
50606;DHT22;36557;53.572;10.170;2023-03-01T15:08:41;7.70;99.90
50606;DHT22;36557;53.572;10.170;2023-03-01T15:13:41;7.60;99.90
50606;DHT22;36557;53.572;10.170;2023-03-01T15:16:28;7.60;99.90
50606;DHT22;36557;53.572;10.170;2023-03-01T15:19:04;7.50;99.90
50606;DHT22;36557;53.572;10.170;2023-03-01T15:21:38;7.60;99.90
50606;DHT22;36557;53.572;10.170;2023-03-01T15:29:20;7.40;99.90
50606;DHT22;36557;53.572;10.170;2023-03-01T15:34:48;7.50;99.90
50606;DHT22;36557;53.572;10.170;2023-03-01T15:37:48;7.40;99.90
50606;DHT22;36557;53.572;10.170;2023-03-01T15:40:28;7.40;99.90
50606;DHT22;36557;53.572;10.170;2023-03-01T15:42:59;7.30;99.90
50606;DHT22;36557;53.572;10.170;2023-03-01T15:45:27;7.40;99.90
50606;DHT22;36557;53.572;10.170;2023-03-01T15:47:54;7.30;99.90
50606;DHT22;36557;53.572;10.170;2023-03-01T15:50:28;7.30;99.90
50606;DHT22;36557;53.572;10.170;2023-03-01T15:52:55;7.20;99.90
50606;DHT22;36557;53.572;10.170;2023-03-01T15:57:49;7.10;99.90
50606;DHT22;36557;53.572;10.170;2023-03-01T16:00:16;7.00;99.90
50606;DHT22;36557;53.572;10.170;2023-03-01T16:02:43;7.00;99.90
50606;DHT22;36557;53.572;10.170;2023-03-01T16:05:25;7.00;99.90
50606;DHT22;36557;53.572;10.170;2023-03-01T16:07:51;6.90;99.90
50606;DHT22;36557;53.572;10.170;2023-03-01T16:10:17;6.80;99.90
50606;DHT22;36557;53.572;10.170;2023-03-01T16:12:43;6.80;99.90
50606;DHT22;36557;53.572;10.170;2023-03-01T16:15:19;6.70;99.90
50606;DHT22;36557;53.572;10.170;2023-03-01T16:17:45;6.70;99.90
50606;DHT22;36557;53.572;10.170;2023-03-01T16:20:11;6.60;99.90
50606;DHT22;36557;53.572;10.170;2023-03-01T16:22:37;6.50;99.90
50606;DHT22;36557;53.572;10.170;2023-03-01T16:25:05;6.50;99.90
50606;DHT22;36557;53.572;10.170;2023-03-01T16:27:31;6.40;99.90
50606;DHT22;36557;53.572;10.170;2023-03-01T16:29:56;6.30;99.90
50606;DHT22;36557;53.572;10.170;2023-03-01T16:32:22;6.30;99.90
50606;DHT22;36557;53.572;10.170;2023-03-01T16:34:48;6.20;99.90
50606;DHT22;36557;53.572;10.170;2023-03-01T16:37:15;6.10;99.90
50606;DHT22;36557;53.572;10.170;2023-03-01T16:39:41;6.10;99.90
50606;DHT22;36557;53.572;10.170;2023-03-01T16:42:07;6.00;99.90
50606;DHT22;36557;53.572;10.170;2023-03-01T16:44:33;5.90;99.90
50606;DHT22;36557;53.572;10.170;2023-03-01T16:46:58;5.80;99.90
50606;DHT22;36557;53.572;10.170;2023-03-01T16:49:24;5.70;99.90
50606;DHT22;36557;53.572;10.170;2023-03-01T16:51:50;5.70;99.90
50606;DHT22;36557;53.572;10.170;2023-03-01T16:54:15;5.50;99.90
50606;DHT22;36557;53.572;10.170;2023-03-01T16:56:41;5.40;99.90
50606;DHT22;36557;53.572;10.170;2023-03-01T16:59:08;5.30;99.90
50606;DHT22;36557;53.572;10.170;2023-03-01T17:01:34;5.20;99.90
50606;DHT22;36557;53.572;10.170;2023-03-01T17:04:04;5.10;99.90
50606;DHT22;36557;53.572;10.170;2023-03-01T17:06:30;5.00;99.90
50606;DHT22;36557;53.572;10.170;2023-03-01T17:08:58;5.00;99.90
50606;DHT22;36557;53.572;10.170;2023-03-01T17:11:24;4.80;99.90
50606;DHT22;36557;53.572;10.170;2023-03-01T17:13:50;4.80;99.90
50606;DHT22;36557;53.572;10.170;2023-03-01T17:16:19;4.70;99.90
50606;DHT22;36557;53.572;10.170;2023-03-01T17:18:45;4.60;99.90
50606;DHT22;36557;53.572;10.170;2023-03-01T17:21:11;4.50;99.90
50606;DHT22;36557;53.572;10.170;2023-03-01T17:23:39;4.30;99.90
50606;DHT22;36557;53.572;10.170;2023-03-01T17:26:06;4.20;99.90
50606;DHT22;36557;53.572;10.170;2023-03-01T17:28:33;4.20;99.90
50606;DHT22;36557;53.572;10.170;2023-03-01T17:31:01;4.00;99.90
50606;DHT22;36557;53.572;10.170;2023-03-01T17:33:27;4.00;99.90
50606;DHT22;36557;53.572;10.170;2023-03-01T17:35:55;3.80;99.90
50606;DHT22;36557;53.572;10.170;2023-03-01T17:38:21;3.70;99.90
50606;DHT22;36557;53.572;10.170;2023-03-01T17:40:47;3.60;99.90
50606;DHT22;36557;53.572;10.170;2023-03-01T17:43:15;3.50;99.90
50606;DHT22;36557;53.572;10.170;2023-03-01T17:45:41;3.40;99.90
50606;DHT22;36557;53.572;10.170;2023-03-01T17:48:09;3.30;99.90
50606;DHT22;36557;53.572;10.170;2023-03-01T17:50:36;3.20;99.90
50606;DHT22;36557;53.572;10.170;2023-03-01T17:53:03;3.10;99.90
50606;DHT22;36557;53.572;10.170;2023-03-01T17:55:33;3.10;99.90
50606;DHT22;36557;53.572;10.170;2023-03-01T17:57:59;3.00;99.90
50606;DHT22;36557;53.572;10.170;2023-03-01T18:00:24;3.00;99.90
50606;DHT22;36557;53.572;10.170;2023-03-01T18:02:50;2.90;99.90
50606;DHT22;36557;53.572;10.170;2023-03-01T18:05:18;2.80;99.90
50606;DHT22;36557;53.572;10.170;2023-03-01T18:07:43;2.70;99.90
50606;DHT22;36557;53.572;10.170;2023-03-01T18:10:09;2.60;99.90
50606;DHT22;36557;53.572;10.170;2023-03-01T18:12:35;2.60;99.90
50606;DHT22;36557;53.572;10.170;2023-03-01T18:15:01;2.60;99.90
50606;DHT22;36557;53.572;10.170;2023-03-01T18:17:27;2.50;99.90
50606;DHT22;36557;53.572;10.170;2023-03-01T18:19:52;2.40;99.90
50606;DHT22;36557;53.572;10.170;2023-03-01T18:22:20;2.40;99.90
50606;DHT22;36557;53.572;10.170;2023-03-01T18:24:46;2.30;99.90
50606;DHT22;36557;53.572;10.170;2023-03-01T18:27:12;2.20;99.90
50606;DHT22;36557;53.572;10.170;2023-03-01T18:29:37;2.10;99.90
50606;DHT22;36557;53.572;10.170;2023-03-01T18:32:04;2.00;99.90
50606;DHT22;36557;53.572;10.170;2023-03-01T18:34:29;2.00;99.90
50606;DHT22;36557;53.572;10.170;2023-03-01T18:36:55;1.90;99.90
50606;DHT22;36557;53.572;10.170;2023-03-01T18:39:22;1.90;99.90
50606;DHT22;36557;53.572;10.170;2023-03-01T18:41:48;1.90;99.90
50606;DHT22;36557;53.572;10.170;2023-03-01T18:44:14;2.00;99.90
50606;DHT22;36557;53.572;10.170;2023-03-01T18:46:40;1.90;99.90
50606;DHT22;36557;53.572;10.170;2023-03-01T18:49:06;2.00;99.90
50606;DHT22;36557;53.572;10.170;2023-03-01T18:51:32;2.00;99.90
50606;DHT22;36557;53.572;10.170;2023-03-01T18:53:59;2.00;99.90
50606;DHT22;36557;53.572;10.170;2023-03-01T18:56:29;2.00;99.90
50606;DHT22;36557;53.572;10.170;2023-03-01T18:58:55;2.00;99.90
50606;DHT22;36557;53.572;10.170;2023-03-01T19:01:24;2.00;99.90
50606;DHT22;36557;53.572;10.170;2023-03-01T19:03:50;2.10;99.90
50606;DHT22;36557;53.572;10.170;2023-03-01T19:06:17;2.00;99.90
50606;DHT22;36557;53.572;10.170;2023-03-01T19:08:43;2.10;99.90
50606;DHT22;36557;53.572;10.170;2023-03-01T19:11:10;2.10;99.90
50606;DHT22;36557;53.572;10.170;2023-03-01T19:13:37;2.10;99.90
50606;DHT22;36557;53.572;10.170;2023-03-01T19:16:05;2.10;99.90
50606;DHT22;36557;53.572;10.170;2023-03-01T19:18:31;2.10;99.90
50606;DHT22;36557;53.572;10.170;2023-03-01T19:21:01;2.10;99.90
50606;DHT22;36557;53.572;10.170;2023-03-01T19:23:28;2.10;99.90
50606;DHT22;36557;53.572;10.170;2023-03-01T19:45:27;2.20;99.90
50606;DHT22;36557;53.572;10.170;2023-03-01T19:47:54;2.10;99.90
50606;DHT22;36557;53.572;10.170;2023-03-01T19:50:19;2.10;99.90
50606;DHT22;36557;53.572;10.170;2023-03-01T19:52:45;2.10;99.90
50606;DHT22;36557;53.572;10.170;2023-03-01T19:55:11;2.20;99.90
50606;DHT22;36557;53.572;10.170;2023-03-01T19:57:37;2.20;99.90
50606;DHT22;36557;53.572;10.170;2023-03-01T20:00:03;2.20;99.90
50606;DHT22;36557;53.572;10.170;2023-03-01T20:02:29;2.20;99.90
50606;DHT22;36557;53.572;10.170;2023-03-01T20:04:55;2.20;99.90
50606;DHT22;36557;53.572;10.170;2023-03-01T20:07:21;2.20;99.90
50606;DHT22;36557;53.572;10.170;2023-03-01T20:09:46;2.20;99.90
50606;DHT22;36557;53.572;10.170;2023-03-01T20:12:12;2.20;99.90
50606;DHT22;36557;53.572;10.170;2023-03-01T20:14:38;2.20;99.90
50606;DHT22;36557;53.572;10.170;2023-03-01T20:17:04;2.30;99.90
50606;DHT22;36557;53.572;10.170;2023-03-01T20:19:29;2.20;99.90
50606;DHT22;36557;53.572;10.170;2023-03-01T20:26:49;2.20;99.90
50606;DHT22;36557;53.572;10.170;2023-03-01T20:29:14;2.20;99.90
50606;DHT22;36557;53.572;10.170;2023-03-01T20:31:40;2.10;99.90
50606;DHT22;36557;53.572;10.170;2023-03-01T20:34:07;2.10;99.90
50606;DHT22;36557;53.572;10.170;2023-03-01T20:36:32;2.10;99.90
50606;DHT22;36557;53.572;10.170;2023-03-01T20:38:59;2.00;99.90
50606;DHT22;36557;53.572;10.170;2023-03-01T20:41:26;2.10;99.90
50606;DHT22;36557;53.572;10.170;2023-03-01T20:43:53;2.00;99.90
50606;DHT22;36557;53.572;10.170;2023-03-01T20:46:21;2.10;99.90
50606;DHT22;36557;53.572;10.170;2023-03-01T20:48:48;2.10;99.90
50606;DHT22;36557;53.572;10.170;2023-03-01T20:51:19;2.10;99.90
50606;DHT22;36557;53.572;10.170;2023-03-01T20:53:44;2.10;99.90
50606;DHT22;36557;53.572;10.170;2023-03-01T20:56:13;2.10;99.90
50606;DHT22;36557;53.572;10.170;2023-03-01T20:58:40;2.00;99.90
50606;DHT22;36557;53.572;10.170;2023-03-01T21:01:07;2.00;99.90